sensor_id;sensor_type;location;lat;lon;timestamp;pressure;altitude;pressure_sealevel;temperature;humidity
19023;BME280;35226;48.606;8.858;2022-09-16T00:00:35;95742.66;;;16.15;100.00
19023;BME280;35226;48.606;8.858;2022-09-16T00:03:01;95738.59;;;16.16;100.00
19023;BME280;35226;48.606;8.858;2022-09-16T00:05:27;95740.34;;;16.14;100.00
19023;BME280;35226;48.606;8.858;2022-09-16T00:07:53;95744.22;;;16.22;100.00
19023;BME280;35226;48.606;8.858;2022-09-16T00:10:20;95740.34;;;16.14;100.00
19023;BME280;35226;48.606;8.858;2022-09-16T00:12:45;95744.88;;;16.11;100.00
19023;BME280;35226;48.606;8.858;2022-09-16T00:15:11;95740.84;;;16.12;100.00
19023;BME280;35226;48.606;8.858;2022-09-16T00:17:37;95745.66;;;16.12;100.00
19023;BME280;35226;48.606;8.858;2022-09-16T00:20:03;95735.72;;;16.05;100.00
19023;BME280;35226;48.606;8.858;2022-09-16T00:22:29;95742.97;;;15.97;100.00
19023;BME280;35226;48.606;8.858;2022-09-16T00:24:55;95740.44;;;15.94;100.00
19023;BME280;35226;48.606;8.858;2022-09-16T00:27:20;95742.94;;;15.91;100.00
19023;BME280;35226;48.606;8.858;2022-09-16T00:29:46;95743.63;;;15.86;100.00
19023;BME280;35226;48.606;8.858;2022-09-16T00:32:11;95740.31;;;15.82;100.00
19023;BME280;35226;48.606;8.858;2022-09-16T00:34:37;95736.81;;;15.87;100.00
19023;BME280;35226;48.606;8.858;2022-09-16T00:48:25;95746.31;;;15.75;100.00
19023;BME280;35226;48.606;8.858;2022-09-16T00:51:07;95749.81;;;15.70;100.00
19023;BME280;35226;48.606;8.858;2022-09-16T00:53:37;95742.22;;;15.71;100.00
19023;BME280;35226;48.606;8.858;2022-09-16T00:56:05;95742.00;;;15.74;100.00
19023;BME280;35226;48.606;8.858;2022-09-16T00:58:41;95744.56;;;15.78;100.00
19023;BME280;35226;48.606;8.858;2022-09-16T01:01:08;95743.03;;;15.77;100.00
19023;BME280;35226;48.606;8.858;2022-09-16T01:03:39;95749.38;;;15.77;100.00
19023;BME280;35226;48.606;8.858;2022-09-16T01:06:08;95744.16;;;15.85;100.00
19023;BME280;35226;48.606;8.858;2022-09-16T01:08:34;95742.81;;;15.80;100.00
19023;BME280;35226;48.606;8.858;2022-09-16T01:11:00;95748.19;;;15.84;100.00
19023;BME280;35226;48.606;8.858;2022-09-16T01:13:25;95745.81;;;15.77;100.00
19023;BME280;35226;48.606;8.858;2022-09-16T01:16:11;95746.66;;;15.83;100.00
19023;BME280;35226;48.606;8.858;2022-09-16T01:21:31;95743.91;;;15.88;100.00
19023;BME280;35226;48.606;8.858;2022-09-16T01:30:16;95733.53;;;15.89;100.00
19023;BME280;35226;48.606;8.858;2022-09-16T01:33:11;95733.78;;;15.85;100.00
19023;BME280;35226;48.606;8.858;2022-09-16T01:41:24;95720.59;;;15.86;100.00
19023;BME280;35226;48.606;8.858;2022-09-16T01:44:05;95728.25;;;15.91;100.00
19023;BME280;35226;48.606;8.858;2022-09-16T01:49:04;95729.94;;;15.83;100.00
19023;BME280;35226;48.606;8.858;2022-09-16T01:51:43;95731.22;;;15.87;100.00
19023;BME280;35226;48.606;8.858;2022-09-16T01:57:01;95725.56;;;15.76;100.00
19023;BME280;35226;48.606;8.858;2022-09-16T02:04:55;95733.78;;;15.85;100.00
19023;BME280;35226;48.606;8.858;2022-09-16T02:07:26;95720.66;;;15.91;100.00
19023;BME280;35226;48.606;8.858;2022-09-16T02:09:57;95728.25;;;15.91;100.00
19023;BME280;35226;48.606;8.858;2022-09-16T02:12:29;95733.97;;;15.82;100.00
19023;BME280;35226;48.606;8.858;2022-09-16T02:15:02;95731.41;;;15.78;100.00
19023;BME280;35226;48.606;8.858;2022-09-16T02:17:32;95723.88;;;15.84;100.00
19023;BME280;35226;48.606;8.858;2022-09-16T02:20:09;95724.56;;;15.79;100.00
19023;BME280;35226;48.606;8.858;2022-09-16T02:22:43;95725.06;;;15.78;100.00
19023;BME280;35226;48.606;8.858;2022-09-16T02:25:13;95730.97;;;15.85;100.00
19023;BME280;35226;48.606;8.858;2022-09-16T02:27:41;95724.66;;;15.85;100.00
19023;BME280;35226;48.606;8.858;2022-09-16T02:30:10;95718.31;;;15.84;100.00
19023;BME280;35226;48.606;8.858;2022-09-16T02:32:43;95718.03;;;15.82;100.00
19023;BME280;35226;48.606;8.858;2022-09-16T02:35:14;95712.47;;;15.82;100.00
19023;BME280;35226;48.606;8.858;2022-09-16T02:37:46;95724.28;;;15.77;100.00
19023;BME280;35226;48.606;8.858;2022-09-16T02:40:43;95724.25;;;15.72;100.00
19023;BME280;35226;48.606;8.858;2022-09-16T02:43:06;95723.94;;;15.64;100.00
19023;BME280;35226;48.606;8.858;2022-09-16T02:48:28;95726.47;;;15.68;100.00
19023;BME280;35226;48.606;8.858;2022-09-16T02:53:52;95720.44;;;15.69;100.00
19023;BME280;35226;48.606;8.858;2022-09-16T02:56:24;95723.69;;;15.68;100.00
19023;BME280;35226;48.606;8.858;2022-09-16T02:58:51;95718.53;;;15.55;100.00
19023;BME280;35226;48.606;8.858;2022-09-16T03:01:18;95724.41;;;15.63;100.00
19023;BME280;35226;48.606;8.858;2022-09-16T03:03:45;95722.06;;;15.56;100.00
19023;BME280;35226;48.606;8.858;2022-09-16T03:06:17;95722.41;;;15.63;100.00
19023;BME280;35226;48.606;8.858;2022-09-16T03:08:44;95715.28;;;15.62;100.00
19023;BME280;35226;48.606;8.858;2022-09-16T03:11:38;95717.34;;;15.67;100.00
19023;BME280;35226;48.606;8.858;2022-09-16T03:22:47;95709.19;;;15.84;100.00
19023;BME280;35226;48.606;8.858;2022-09-16T03:28:06;95707.41;;;15.86;100.00
19023;BME280;35226;48.606;8.858;2022-09-16T03:30:38;95707.69;;;15.88;100.00
19023;BME280;35226;48.606;8.858;2022-09-16T03:36:01;95704.09;;;15.82;100.00
19023;BME280;35226;48.606;8.858;2022-09-16T03:38:32;95694.81;;;15.91;100.00
19023;BME280;35226;48.606;8.858;2022-09-16T03:40:58;95692.22;;;15.87;100.00
19023;BME280;35226;48.606;8.858;2022-09-16T03:43:25;95693.81;;;15.94;100.00
19023;BME280;35226;48.606;8.858;2022-09-16T03:45:51;95692.31;;;15.93;100.00
19023;BME280;35226;48.606;8.858;2022-09-16T03:48:16;95695.41;;;16.01;100.00
19023;BME280;35226;48.606;8.858;2022-09-16T03:50:42;95693.34;;;15.96;100.00
19023;BME280;35226;48.606;8.858;2022-09-16T03:53:08;95693.75;;;15.88;100.00
19023;BME280;35226;48.606;8.858;2022-09-16T03:55:33;95701.16;;;15.91;100.00
19023;BME280;35226;48.606;8.858;2022-09-16T03:57:59;95694.63;;;16.00;100.00
19023;BME280;35226;48.606;8.858;2022-09-16T04:00:25;95696.88;;;15.96;100.00
19023;BME280;35226;48.606;8.858;2022-09-16T04:02:50;95696.72;;;16.05;100.00
19023;BME280;35226;48.606;8.858;2022-09-16T04:05:16;95699.16;;;15.98;100.00
19023;BME280;35226;48.606;8.858;2022-09-16T04:07:41;95701.84;;;15.86;100.00
19023;BME280;35226;48.606;8.858;2022-09-16T04:10:07;95689.44;;;15.87;100.00
19023;BME280;35226;48.606;8.858;2022-09-16T04:12:33;95694.25;;;15.87;100.00
19023;BME280;35226;48.606;8.858;2022-09-16T04:14:58;95686.75;;;15.99;100.00
19023;BME280;35226;48.606;8.858;2022-09-16T04:17:24;95685.28;;;16.03;100.00
19023;BME280;35226;48.606;8.858;2022-09-16T04:19:50;95692.56;;;15.95;100.00
19023;BME280;35226;48.606;8.858;2022-09-16T04:22:17;95678.88;;;15.97;100.00
19023;BME280;35226;48.606;8.858;2022-09-16T04:24:43;95678.38;;;15.93;100.00
19023;BME280;35226;48.606;8.858;2022-09-16T04:27:08;95673.84;;;15.96;100.00
19023;BME280;35226;48.606;8.858;2022-09-16T04:29:34;95672.84;;;15.99;100.00
19023;BME280;35226;48.606;8.858;2022-09-16T04:32:00;95672.84;;;15.99;100.00
19023;BME280;35226;48.606;8.858;2022-09-16T04:34:25;95665.25;;;15.99;100.00
19023;BME280;35226;48.606;8.858;2022-09-16T04:36:51;95659.34;;;15.91;100.00
19023;BME280;35226;48.606;8.858;2022-09-16T04:39:17;95658.63;;;15.97;100.00
19023;BME280;35226;48.606;8.858;2022-09-16T04:41:42;95659.63;;;15.94;100.00
19023;BME280;35226;48.606;8.858;2022-09-16T04:44:09;95660.88;;;15.93;100.00
19023;BME280;35226;48.606;8.858;2022-09-16T04:46:34;95663.78;;;16.09;100.00
19023;BME280;35226;48.606;8.858;2022-09-16T04:49:00;95660.22;;;16.03;100.00
19023;BME280;35226;48.606;8.858;2022-09-16T04:51:27;95663.50;;;16.02;100.00
19023;BME280;35226;48.606;8.858;2022-09-16T04:53:57;95656.88;;;15.99;100.00
19023;BME280;35226;48.606;8.858;2022-09-16T04:56:28;95657.13;;;15.96;100.00
19023;BME280;35226;48.606;8.858;2022-09-16T04:58:58;95661.84;;;16.15;100.00
19023;BME280;35226;48.606;8.858;2022-09-16T05:01:31;95666.97;;;15.97;100.00
19023;BME280;35226;48.606;8.858;2022-09-16T05:03:58;95667.84;;;16.08;100.00
19023;BME280;35226;48.606;8.858;2022-09-16T05:06:30;95675.88;;;16.01;100.00
19023;BME280;35226;48.606;8.858;2022-09-16T05:08:57;95687.19;;;15.86;100.00
19023;BME280;35226;48.606;8.858;2022-09-16T05:11:25;95681.66;;;15.91;100.00
19023;BME280;35226;48.606;8.858;2022-09-16T05:13:52;95679.75;;;16.09;100.00
19023;BME280;35226;48.606;8.858;2022-09-16T05:16:20;95690.03;;;15.97;100.00
19023;BME280;35226;48.606;8.858;2022-09-16T05:18:47;95680.75;;;16.06;100.00
19023;BME280;35226;48.606;8.858;2022-09-16T05:21:19;95688.16;;;16.14;100.00
19023;BME280;35226;48.606;8.858;2022-09-16T05:23:46;95675.53;;;16.19;100.00
19023;BME280;35226;48.606;8.858;2022-09-16T05:26:14;95675.56;;;16.24;100.00
19023;BME280;35226;48.606;8.858;2022-09-16T05:28:40;95681.06;;;16.13;100.00
19023;BME280;35226;48.606;8.858;2022-09-16T05:31:26;95679.75;;;16.09;100.00
19023;BME280;35226;48.606;8.858;2022-09-16T05:34:06;95683.31;;;16.09;100.00
19023;BME280;35226;48.606;8.858;2022-09-16T05:36:35;95677.69;;;16.04;100.00
19023;BME280;35226;48.606;8.858;2022-09-16T05:39:04;95670.88;;;16.05;100.00
19023;BME280;35226;48.606;8.858;2022-09-16T05:41:29;95680.31;;;16.13;100.00
19023;BME280;35226;48.606;8.858;2022-09-16T05:43:58;95676.50;;;16.16;100.00
19023;BME280;35226;48.606;8.858;2022-09-16T05:46:25;95673.47;;;16.14;100.00
19023;BME280;35226;48.606;8.858;2022-09-16T05:48:51;95687.41;;;16.14;100.00
19023;BME280;35226;48.606;8.858;2022-09-16T05:51:19;95680.06;;;16.16;100.00
19023;BME280;35226;48.606;8.858;2022-09-16T05:53:45;95692.34;;;15.99;100.00
19023;BME280;35226;48.606;8.858;2022-09-16T05:56:14;95696.34;;;15.92;100.00
19023;BME280;35226;48.606;8.858;2022-09-16T05:58:40;95682.09;;;15.84;100.00
19023;BME280;35226;48.606;8.858;2022-09-16T06:01:09;95679.84;;;15.88;100.00
19023;BME280;35226;48.606;8.858;2022-09-16T06:03:38;95678.13;;;15.65;100.00
19023;BME280;35226;48.606;8.858;2022-09-16T06:06:13;95679.91;;;15.68;100.00
19023;BME280;35226;48.606;8.858;2022-09-16T06:08:40;95693.47;;;15.55;100.00
19023;BME280;35226;48.606;8.858;2022-09-16T06:11:07;95686.25;;;15.69;100.00
19023;BME280;35226;48.606;8.858;2022-09-16T06:13:34;95694.28;;;15.61;100.00
19023;BME280;35226;48.606;8.858;2022-09-16T06:15:59;95694.47;;;15.58;100.00
19023;BME280;35226;48.606;8.858;2022-09-16T06:18:28;95683.94;;;15.67;100.00
19023;BME280;35226;48.606;8.858;2022-09-16T06:20:54;95688.19;;;15.57;100.00
19023;BME280;35226;48.606;8.858;2022-09-16T06:23:21;95697.00;;;15.56;100.00
19023;BME280;35226;48.606;8.858;2022-09-16T06:25:47;95699.66;;;15.44;100.00
19023;BME280;35226;48.606;8.858;2022-09-16T06:28:13;95700.28;;;15.34;100.00
19023;BME280;35226;48.606;8.858;2022-09-16T06:30:39;95696.44;;;15.51;100.00
19023;BME280;35226;48.606;8.858;2022-09-16T06:33:05;95693.47;;;15.55;100.00
19023;BME280;35226;48.606;8.858;2022-09-16T06:35:33;95686.41;;;15.39;100.00
19023;BME280;35226;48.606;8.858;2022-09-16T06:37:59;95691.50;;;15.41;100.00
19023;BME280;35226;48.606;8.858;2022-09-16T06:40:25;95689.28;;;15.45;100.00
19023;BME280;35226;48.606;8.858;2022-09-16T06:42:54;95695.22;;;15.32;100.00
19023;BME280;35226;48.606;8.858;2022-09-16T06:45:21;95691.88;;;15.28;100.00
19023;BME280;35226;48.606;8.858;2022-09-16T06:47:46;95703.09;;;15.13;100.00
19023;BME280;35226;48.606;8.858;2022-09-16T06:50:12;95692.44;;;15.32;100.00
19023;BME280;35226;48.606;8.858;2022-09-16T06:52:38;95702.13;;;15.16;100.00
19023;BME280;35226;48.606;8.858;2022-09-16T06:55:03;95702.00;;;15.05;100.00
19023;BME280;35226;48.606;8.858;2022-09-16T06:57:29;95703.66;;;14.97;100.00
19023;BME280;35226;48.606;8.858;2022-09-16T06:59:55;95700.31;;;14.93;100.00
19023;BME280;35226;48.606;8.858;2022-09-16T07:02:21;95692.41;;;14.86;100.00
19023;BME280;35226;48.606;8.858;2022-09-16T07:04:48;95706.84;;;14.90;100.00
19023;BME280;35226;48.606;8.858;2022-09-16T07:07:14;95705.13;;;14.93;100.00
19023;BME280;35226;48.606;8.858;2022-09-16T07:09:40;95708.72;;;14.99;100.00
19023;BME280;35226;48.606;8.858;2022-09-16T07:12:06;95703.19;;;14.78;100.00
19023;BME280;35226;48.606;8.858;2022-09-16T07:14:32;95717.00;;;14.73;100.00
19023;BME280;35226;48.606;8.858;2022-09-16T07:16:58;95708.19;;;14.95;100.00
19023;BME280;35226;48.606;8.858;2022-09-16T07:19:25;95698.59;;;14.96;100.00
19023;BME280;35226;48.606;8.858;2022-09-16T07:21:50;95703.91;;;14.99;100.00
19023;BME280;35226;48.606;8.858;2022-09-16T07:24:16;95715.94;;;14.91;100.00
19023;BME280;35226;48.606;8.858;2022-09-16T07:26:42;95718.53;;;14.94;100.00
19023;BME280;35226;48.606;8.858;2022-09-16T07:29:13;95717.41;;;14.66;100.00
19023;BME280;35226;48.606;8.858;2022-09-16T07:31:39;95725.91;;;14.77;100.00
19023;BME280;35226;48.606;8.858;2022-09-16T07:34:07;95728.69;;;14.77;100.00
19023;BME280;35226;48.606;8.858;2022-09-16T07:36:44;95716.09;;;14.81;100.00
19023;BME280;35226;48.606;8.858;2022-09-16T07:39:14;95715.75;;;14.74;100.00
19023;BME280;35226;48.606;8.858;2022-09-16T07:41:42;95728.41;;;14.75;100.00
19023;BME280;35226;48.606;8.858;2022-09-16T07:44:13;95731.72;;;14.59;100.00
19023;BME280;35226;48.606;8.858;2022-09-16T07:46:39;95730.47;;;14.80;100.00
19023;BME280;35226;48.606;8.858;2022-09-16T07:49:07;95729.31;;;14.87;100.00
19023;BME280;35226;48.606;8.858;2022-09-16T07:51:33;95729.56;;;14.68;100.00
19023;BME280;35226;48.606;8.858;2022-09-16T07:54:06;95738.94;;;14.71;100.00
19023;BME280;35226;48.606;8.858;2022-09-16T07:56:35;95741.13;;;14.81;100.00
19023;BME280;35226;48.606;8.858;2022-09-16T07:59:03;95741.47;;;14.89;100.00
19023;BME280;35226;48.606;8.858;2022-09-16T08:01:29;95739.38;;;14.84;100.00
19023;BME280;35226;48.606;8.858;2022-09-16T08:03:56;95741.66;;;14.65;100.00
19023;BME280;35226;48.606;8.858;2022-09-16T08:06:24;95745.09;;;14.60;100.00
19023;BME280;35226;48.606;8.858;2022-09-16T08:08:51;95747.97;;;14.66;100.00
19023;BME280;35226;48.606;8.858;2022-09-16T08:11:18;95744.13;;;14.78;100.00
19023;BME280;35226;48.606;8.858;2022-09-16T08:13:43;95747.03;;;14.69;100.00
19023;BME280;35226;48.606;8.858;2022-09-16T08:16:17;95755.59;;;14.86;100.00
19023;BME280;35226;48.606;8.858;2022-09-16T08:18:44;95762.00;;;14.92;100.00
19023;BME280;35226;48.606;8.858;2022-09-16T08:21:14;95766.59;;;14.95;100.00
19023;BME280;35226;48.606;8.858;2022-09-16T08:23:39;95763.81;;;14.95;100.00
19023;BME280;35226;48.606;8.858;2022-09-16T08:26:06;95759.34;;;15.03;100.00
19023;BME280;35226;48.606;8.858;2022-09-16T08:28:34;95767.00;;;14.88;100.00
19023;BME280;35226;48.606;8.858;2022-09-16T08:31:00;95768.00;;;15.05;100.00
19023;BME280;35226;48.606;8.858;2022-09-16T08:33:26;95769.88;;;15.13;100.00
19023;BME280;35226;48.606;8.858;2022-09-16T08:36:03;95774.09;;;15.09;100.00
19023;BME280;35226;48.606;8.858;2022-09-16T08:38:30;95773.97;;;15.18;100.00
19023;BME280;35226;48.606;8.858;2022-09-16T08:43:46;95776.34;;;15.25;100.00
19023;BME280;35226;48.606;8.858;2022-09-16T08:46:22;95779.28;;;15.36;100.00
19023;BME280;35226;48.606;8.858;2022-09-16T08:49:00;95784.56;;;15.34;100.00
19023;BME280;35226;48.606;8.858;2022-09-16T08:51:34;95782.41;;;15.44;100.00
19023;BME280;35226;48.606;8.858;2022-09-16T08:54:08;95790.47;;;15.42;100.00
19023;BME280;35226;48.606;8.858;2022-09-16T08:56:36;95786.47;;;15.48;100.00
19023;BME280;35226;48.606;8.858;2022-09-16T08:59:05;95782.16;;;15.47;100.00
19023;BME280;35226;48.606;8.858;2022-09-16T09:01:59;95781.19;;;15.50;100.00
19023;BME280;35226;48.606;8.858;2022-09-16T09:04:30;95788.31;;;15.51;100.00
19023;BME280;35226;48.606;8.858;2022-09-16T09:12:35;95785.97;;;15.65;100.00
19023;BME280;35226;48.606;8.858;2022-09-16T09:18:15;95792.94;;;15.54;100.00
19023;BME280;35226;48.606;8.858;2022-09-16T09:28:57;95785.25;;;15.29;100.00
19023;BME280;35226;48.606;8.858;2022-09-16T09:37:40;95778.00;;;15.58;100.00
19023;BME280;35226;48.606;8.858;2022-09-16T09:40:45;95779.47;;;15.53;100.00
19023;BME280;35226;48.606;8.858;2022-09-16T09:43:18;95773.22;;;15.58;100.00
19023;BME280;35226;48.606;8.858;2022-09-16T09:46:00;95776.34;;;15.66;100.00
19023;BME280;35226;48.606;8.858;2022-09-16T09:48:32;95778.56;;;15.62;100.00
19023;BME280;35226;48.606;8.858;2022-09-16T09:51:05;95784.97;;;15.68;100.00
19023;BME280;35226;48.606;8.858;2022-09-16T09:53:40;95779.13;;;15.45;100.00
19023;BME280;35226;48.606;8.858;2022-09-16T09:56:24;95778.69;;;15.52;100.00
19023;BME280;35226;48.606;8.858;2022-09-16T09:59:23;95783.66;;;15.63;100.00
19023;BME280;35226;48.606;8.858;2022-09-16T10:01:54;95781.00;;;15.74;100.00
19023;BME280;35226;48.606;8.858;2022-09-16T10:04:20;95780.94;;;15.69;100.00
19023;BME280;35226;48.606;8.858;2022-09-16T10:06:46;95774.81;;;15.65;100.00
19023;BME280;35226;48.606;8.858;2022-09-16T10:09:14;95785.25;;;15.70;100.00
19023;BME280;35226;48.606;8.858;2022-09-16T10:11:52;95786.94;;;15.62;100.00
19023;BME280;35226;48.606;8.858;2022-09-16T10:14:34;95784.59;;;15.80;100.00
19023;BME280;35226;48.606;8.858;2022-09-16T10:17:03;95784.31;;;15.78;100.00
19023;BME280;35226;48.606;8.858;2022-09-16T10:22:33;95773.41;;;15.75;100.00
19023;BME280;35226;48.606;8.858;2022-09-16T10:25:02;95776.75;;;15.59;100.00
19023;BME280;35226;48.606;8.858;2022-09-16T10:27:33;95772.72;;;15.39;100.00
19023;BME280;35226;48.606;8.858;2022-09-16T10:35:27;95780.44;;;15.30;100.00
19023;BME280;35226;48.606;8.858;2022-09-16T10:37:59;95782.84;;;15.57;100.00
19023;BME280;35226;48.606;8.858;2022-09-16T10:40:27;95781.69;;;15.49;100.00
19023;BME280;35226;48.606;8.858;2022-09-16T10:42:58;95777.81;;;15.61;100.00
19023;BME280;35226;48.606;8.858;2022-09-16T10:45:30;95781.34;;;15.62;100.00
19023;BME280;35226;48.606;8.858;2022-09-16T10:48:06;95780.72;;;15.72;100.00
19023;BME280;35226;48.606;8.858;2022-09-16T10:50:38;95787.72;;;15.47;100.00
19023;BME280;35226;48.606;8.858;2022-09-16T10:53:20;95787.69;;;15.62;100.00
19023;BME280;35226;48.606;8.858;2022-09-16T10:55:56;95791.03;;;15.46;100.00
19023;BME280;35226;48.606;8.858;2022-09-16T10:58:22;95783.88;;;15.60;100.00
19023;BME280;35226;48.606;8.858;2022-09-16T11:03:59;95793.31;;;15.47;100.00
19023;BME280;35226;48.606;8.858;2022-09-16T11:07:07;95787.38;;;15.80;100.00
19023;BME280;35226;48.606;8.858;2022-09-16T11:19:15;95797.84;;;15.85;100.00
19023;BME280;35226;48.606;8.858;2022-09-16T11:31:49;95794.69;;;15.78;100.00
19023;BME280;35226;48.606;8.858;2022-09-16T11:34:27;95784.09;;;16.08;100.00
19023;BME280;35226;48.606;8.858;2022-09-16T11:45:46;95790.25;;;16.12;100.00
19023;BME280;35226;48.606;8.858;2022-09-16T11:56:08;95786.44;;;16.41;100.00
19023;BME280;35226;48.606;8.858;2022-09-16T12:01:27;95780.38;;;16.42;100.00
19023;BME280;35226;48.606;8.858;2022-09-16T12:07:05;95781.56;;;16.61;100.00
19023;BME280;35226;48.606;8.858;2022-09-16T12:09:41;95778.09;;;16.72;100.00
19023;BME280;35226;48.606;8.858;2022-09-16T12:12:21;95769.63;;;16.98;100.00
19023;BME280;35226;48.606;8.858;2022-09-16T12:14:57;95773.78;;;16.77;100.00
19023;BME280;35226;48.606;8.858;2022-09-16T12:17:27;95768.38;;;16.62;100.00
19023;BME280;35226;48.606;8.858;2022-09-16T12:22:59;95785.44;;;16.75;100.00
19023;BME280;35226;48.606;8.858;2022-09-16T12:28:35;95786.34;;;16.92;100.00
19023;BME280;35226;48.606;8.858;2022-09-16T12:33:56;95780.72;;;16.55;100.00
19023;BME280;35226;48.606;8.858;2022-09-16T12:36:28;95781.47;;;16.56;100.00
19023;BME280;35226;48.606;8.858;2022-09-16T12:38:59;95781.91;;;16.43;100.00
19023;BME280;35226;48.606;8.858;2022-09-16T12:59:50;95760.91;;;16.85;89.57
19023;BME280;35226;48.606;8.858;2022-09-16T13:02:22;95763.13;;;16.75;85.31
19023;BME280;35226;48.606;8.858;2022-09-16T13:04:54;95765.16;;;16.75;82.89
19023;BME280;35226;48.606;8.858;2022-09-16T13:07:25;95766.47;;;17.27;89.52
19023;BME280;35226;48.606;8.858;2022-09-16T13:10:07;95765.50;;;17.36;84.63
19023;BME280;35226;48.606;8.858;2022-09-16T13:12:33;95757.78;;;17.68;79.71
19023;BME280;35226;48.606;8.858;2022-09-16T13:15:02;95751.97;;;17.83;80.81
19023;BME280;35226;48.606;8.858;2022-09-16T13:17:37;95753.22;;;17.70;78.08
19023;BME280;35226;48.606;8.858;2022-09-16T13:20:55;95747.13;;;17.78;78.14
19023;BME280;35226;48.606;8.858;2022-09-16T13:23:10;95742.88;;;18.27;75.78
19023;BME280;35226;48.606;8.858;2022-09-16T13:25:54;95739.03;;;18.13;75.96
19023;BME280;35226;48.606;8.858;2022-09-16T13:31:19;95744.41;;;18.67;76.30
19023;BME280;35226;48.606;8.858;2022-09-16T13:39:01;95740.09;;;18.66;76.51
19023;BME280;35226;48.606;8.858;2022-09-16T13:46:51;95740.59;;;18.70;75.40
19023;BME280;35226;48.606;8.858;2022-09-16T13:49:24;95741.59;;;18.56;78.90
19023;BME280;35226;48.606;8.858;2022-09-16T13:51:52;95744.66;;;18.07;79.11
19023;BME280;35226;48.606;8.858;2022-09-16T13:54:25;95750.50;;;18.21;79.86
19023;BME280;35226;48.606;8.858;2022-09-16T14:00:04;95741.84;;;18.13;81.45
19023;BME280;35226;48.606;8.858;2022-09-16T14:05:42;95734.72;;;18.57;83.72
19023;BME280;35226;48.606;8.858;2022-09-16T14:11:19;95736.03;;;18.50;81.80
19023;BME280;35226;48.606;8.858;2022-09-16T14:13:54;95732.44;;;18.44;75.90
19023;BME280;35226;48.606;8.858;2022-09-16T14:16:26;95729.91;;;18.12;67.20
19023;BME280;35226;48.606;8.858;2022-09-16T14:19:06;95728.88;;;18.43;71.19
19023;BME280;35226;48.606;8.858;2022-09-16T14:21:39;95727.63;;;18.67;68.28
19023;BME280;35226;48.606;8.858;2022-09-16T14:24:16;95735.25;;;18.72;70.45
19023;BME280;35226;48.606;8.858;2022-09-16T14:26:53;95729.16;;;18.62;69.05
19023;BME280;35226;48.606;8.858;2022-09-16T14:29:19;95732.69;;;18.74;68.80
19023;BME280;35226;48.606;8.858;2022-09-16T14:31:46;95735.50;;;18.46;67.41
19023;BME280;35226;48.606;8.858;2022-09-16T14:34:33;95728.88;;;18.77;65.50
19023;BME280;35226;48.606;8.858;2022-09-16T14:37:01;95733.63;;;19.10;66.66
19023;BME280;35226;48.606;8.858;2022-09-16T14:39:27;95735.19;;;19.05;69.02
19023;BME280;35226;48.606;8.858;2022-09-16T14:41:59;95739.03;;;18.97;65.67
19023;BME280;35226;48.606;8.858;2022-09-16T14:44:35;95739.28;;;18.93;67.30
19023;BME280;35226;48.606;8.858;2022-09-16T14:47:04;95729.16;;;18.62;61.04
19023;BME280;35226;48.606;8.858;2022-09-16T14:49:35;95736.56;;;18.60;62.46
19023;BME280;35226;48.606;8.858;2022-09-16T14:52:02;95735.50;;;18.40;64.52
19023;BME280;35226;48.606;8.858;2022-09-16T14:54:29;95735.75;;;18.26;63.07
19023;BME280;35226;48.606;8.858;2022-09-16T14:57:04;95733.22;;;18.44;62.12
19023;BME280;35226;48.606;8.858;2022-09-16T14:59:38;95726.59;;;18.47;62.37
19023;BME280;35226;48.606;8.858;2022-09-16T15:02:20;95732.19;;;18.75;63.62
19023;BME280;35226;48.606;8.858;2022-09-16T15:04:50;95723.06;;;18.30;60.23
19023;BME280;35226;48.606;8.858;2022-09-16T15:07:21;95728.13;;;18.15;60.52
19023;BME280;35226;48.606;8.858;2022-09-16T15:10:28;95722.28;;;18.19;60.15
19023;BME280;35226;48.606;8.858;2022-09-16T15:12:58;95716.44;;;18.33;61.02
19023;BME280;35226;48.606;8.858;2022-09-16T15:15:28;95720.50;;;18.43;59.86
19023;BME280;35226;48.606;8.858;2022-09-16T15:17:59;95721.50;;;18.24;60.83
19023;BME280;35226;48.606;8.858;2022-09-16T15:20:30;95718.47;;;18.33;60.01
19023;BME280;35226;48.606;8.858;2022-09-16T15:22:57;95720.25;;;18.36;61.27
19023;BME280;35226;48.606;8.858;2022-09-16T15:25:26;95721.25;;;18.22;63.46
19023;BME280;35226;48.606;8.858;2022-09-16T15:28:13;95722.31;;;18.58;63.26
19023;BME280;35226;48.606;8.858;2022-09-16T15:30:45;95724.84;;;18.50;64.81
19023;BME280;35226;48.606;8.858;2022-09-16T15:33:35;95717.72;;;18.38;63.19
19023;BME280;35226;48.606;8.858;2022-09-16T15:36:02;95713.88;;;18.52;64.73
19023;BME280;35226;48.606;8.858;2022-09-16T15:38:28;95713.13;;;18.07;67.24
19023;BME280;35226;48.606;8.858;2022-09-16T15:41:12;95720.50;;;18.04;65.64
19023;BME280;35226;48.606;8.858;2022-09-16T15:43:42;95725.28;;;17.70;66.92
19023;BME280;35226;48.606;8.858;2022-09-16T15:46:16;95724.78;;;17.78;67.67
19023;BME280;35226;48.606;8.858;2022-09-16T15:48:56;95729.09;;;17.84;68.89
19023;BME280;35226;48.606;8.858;2022-09-16T15:53:52;95717.16;;;17.72;68.46
19023;BME280;35226;48.606;8.858;2022-09-16T15:56:55;95719.59;;;17.54;66.83
19023;BME280;35226;48.606;8.858;2022-09-16T15:59:37;95721.13;;;17.55;68.83
19023;BME280;35226;48.606;8.858;2022-09-16T16:02:20;95721.34;;;17.46;68.64
19023;BME280;35226;48.606;8.858;2022-09-16T16:04:47;95727.94;;;17.37;68.12
19023;BME280;35226;48.606;8.858;2022-09-16T16:10:25;95726.25;;;17.62;69.46
19023;BME280;35226;48.606;8.858;2022-09-16T16:12:52;95722.41;;;17.54;68.03
19023;BME280;35226;48.606;8.858;2022-09-16T16:15:27;95724.94;;;17.52;68.30
19023;BME280;35226;48.606;8.858;2022-09-16T16:17:56;95726.19;;;17.45;69.31
19023;BME280;35226;48.606;8.858;2022-09-16T16:20:23;95727.47;;;17.55;70.21
19023;BME280;35226;48.606;8.858;2022-09-16T16:22:49;95725.72;;;17.52;71.14